sensor_id;sensor_type;location;lat;lon;timestamp;temperature;humidity
20337;DHT22;10326;53.660;10.200;2023-09-18T00:00:54;22.20;87.20
20337;DHT22;10326;53.660;10.200;2023-09-18T00:03:23;22.20;87.20
20337;DHT22;10326;53.660;10.200;2023-09-18T00:05:51;22.10;87.20
20337;DHT22;10326;53.660;10.200;2023-09-18T00:08:19;22.10;87.20
20337;DHT22;10326;53.660;10.200;2023-09-18T00:10:48;22.10;87.20
20337;DHT22;10326;53.660;10.200;2023-09-18T00:13:16;22.10;87.30
20337;DHT22;10326;53.660;10.200;2023-09-18T00:15:45;22.00;87.30
20337;DHT22;10326;53.660;10.200;2023-09-18T00:18:14;22.00;87.30
20337;DHT22;10326;53.660;10.200;2023-09-18T00:20:42;22.00;87.30
20337;DHT22;10326;53.660;10.200;2023-09-18T00:23:13;22.00;87.30
20337;DHT22;10326;53.660;10.200;2023-09-18T00:25:41;22.00;87.30
20337;DHT22;10326;53.660;10.200;2023-09-18T00:28:09;21.90;87.30
20337;DHT22;10326;53.660;10.200;2023-09-18T00:30:37;21.90;87.30
20337;DHT22;10326;53.660;10.200;2023-09-18T00:33:08;21.90;87.40
20337;DHT22;10326;53.660;10.200;2023-09-18T00:35:35;21.90;87.50
20337;DHT22;10326;53.660;10.200;2023-09-18T00:38:02;21.80;87.50
20337;DHT22;10326;53.660;10.200;2023-09-18T00:40:32;21.80;87.50
20337;DHT22;10326;53.660;10.200;2023-09-18T00:42:59;21.80;87.50
20337;DHT22;10326;53.660;10.200;2023-09-18T00:45:26;21.80;87.50
20337;DHT22;10326;53.660;10.200;2023-09-18T00:47:54;21.70;87.50
20337;DHT22;10326;53.660;10.200;2023-09-18T00:50:22;21.70;87.60
20337;DHT22;10326;53.660;10.200;2023-09-18T00:52:50;21.70;87.70
20337;DHT22;10326;53.660;10.200;2023-09-18T00:55:17;21.70;87.70
20337;DHT22;10326;53.660;10.200;2023-09-18T00:57:45;21.70;87.70
20337;DHT22;10326;53.660;10.200;2023-09-18T01:00:13;21.70;87.70
20337;DHT22;10326;53.660;10.200;2023-09-18T01:02:43;21.70;87.70
20337;DHT22;10326;53.660;10.200;2023-09-18T01:05:11;21.60;87.70
20337;DHT22;10326;53.660;10.200;2023-09-18T01:07:40;21.60;87.70
20337;DHT22;10326;53.660;10.200;2023-09-18T01:10:08;21.60;87.80
20337;DHT22;10326;53.660;10.200;2023-09-18T01:12:41;21.60;87.80
20337;DHT22;10326;53.660;10.200;2023-09-18T01:15:14;21.50;87.80
20337;DHT22;10326;53.660;10.200;2023-09-18T01:17:44;21.50;87.70
20337;DHT22;10326;53.660;10.200;2023-09-18T01:20:12;21.50;87.80
20337;DHT22;10326;53.660;10.200;2023-09-18T01:22:41;21.50;87.90
20337;DHT22;10326;53.660;10.200;2023-09-18T01:25:09;21.50;87.90
20337;DHT22;10326;53.660;10.200;2023-09-18T01:27:36;21.50;87.90
20337;DHT22;10326;53.660;10.200;2023-09-18T01:30:04;21.40;87.80
20337;DHT22;10326;53.660;10.200;2023-09-18T01:32:35;21.40;87.90
20337;DHT22;10326;53.660;10.200;2023-09-18T01:35:05;21.40;88.00
20337;DHT22;10326;53.660;10.200;2023-09-18T01:37:34;21.40;87.90
20337;DHT22;10326;53.660;10.200;2023-09-18T01:40:06;21.40;87.90
20337;DHT22;10326;53.660;10.200;2023-09-18T01:42:34;21.40;88.10
20337;DHT22;10326;53.660;10.200;2023-09-18T01:45:02;21.40;88.00
20337;DHT22;10326;53.660;10.200;2023-09-18T01:47:31;21.40;88.00
20337;DHT22;10326;53.660;10.200;2023-09-18T01:49:59;21.40;88.10
20337;DHT22;10326;53.660;10.200;2023-09-18T01:52:31;21.30;88.10
20337;DHT22;10326;53.660;10.200;2023-09-18T01:54:58;21.30;88.00
20337;DHT22;10326;53.660;10.200;2023-09-18T01:57:27;21.30;88.10
20337;DHT22;10326;53.660;10.200;2023-09-18T01:59:55;21.30;88.30
20337;DHT22;10326;53.660;10.200;2023-09-18T02:02:22;21.30;88.10
20337;DHT22;10326;53.660;10.200;2023-09-18T02:04:50;21.30;88.10
20337;DHT22;10326;53.660;10.200;2023-09-18T02:07:17;21.30;88.10
20337;DHT22;10326;53.660;10.200;2023-09-18T02:09:45;21.30;88.20
20337;DHT22;10326;53.660;10.200;2023-09-18T02:12:12;21.20;88.10
20337;DHT22;10326;53.660;10.200;2023-09-18T02:14:45;21.20;88.10
20337;DHT22;10326;53.660;10.200;2023-09-18T02:17:12;21.20;88.30
20337;DHT22;10326;53.660;10.200;2023-09-18T02:19:40;21.20;88.20
20337;DHT22;10326;53.660;10.200;2023-09-18T02:22:08;21.20;88.20
20337;DHT22;10326;53.660;10.200;2023-09-18T02:24:36;21.20;88.20
20337;DHT22;10326;53.660;10.200;2023-09-18T02:27:04;21.20;88.20
20337;DHT22;10326;53.660;10.200;2023-09-18T02:29:31;21.10;88.30
20337;DHT22;10326;53.660;10.200;2023-09-18T02:32:01;21.10;88.30
20337;DHT22;10326;53.660;10.200;2023-09-18T02:34:28;21.10;88.30
20337;DHT22;10326;53.660;10.200;2023-09-18T02:36:55;21.10;88.30
20337;DHT22;10326;53.660;10.200;2023-09-18T02:39:22;21.10;88.30
20337;DHT22;10326;53.660;10.200;2023-09-18T02:41:50;21.10;88.30
20337;DHT22;10326;53.660;10.200;2023-09-18T02:44:18;21.00;88.40
20337;DHT22;10326;53.660;10.200;2023-09-18T02:46:45;21.00;88.50
20337;DHT22;10326;53.660;10.200;2023-09-18T02:49:14;21.00;88.40
20337;DHT22;10326;53.660;10.200;2023-09-18T02:51:41;21.00;88.50
20337;DHT22;10326;53.660;10.200;2023-09-18T02:54:08;21.00;88.50
20337;DHT22;10326;53.660;10.200;2023-09-18T02:56:35;21.00;88.50
20337;DHT22;10326;53.660;10.200;2023-09-18T02:59:03;20.90;88.60
20337;DHT22;10326;53.660;10.200;2023-09-18T03:01:31;20.90;88.80
20337;DHT22;10326;53.660;10.200;2023-09-18T03:03:58;20.90;88.60
20337;DHT22;10326;53.660;10.200;2023-09-18T03:06:26;20.90;88.60
20337;DHT22;10326;53.660;10.200;2023-09-18T03:08:54;20.90;88.60
20337;DHT22;10326;53.660;10.200;2023-09-18T03:11:21;20.90;88.60
20337;DHT22;10326;53.660;10.200;2023-09-18T03:13:53;20.90;88.70
20337;DHT22;10326;53.660;10.200;2023-09-18T03:16:21;20.90;88.80
20337;DHT22;10326;53.660;10.200;2023-09-18T03:18:48;20.80;88.70
20337;DHT22;10326;53.660;10.200;2023-09-18T03:21:16;20.90;88.80
20337;DHT22;10326;53.660;10.200;2023-09-18T03:23:44;20.80;88.70
20337;DHT22;10326;53.660;10.200;2023-09-18T03:26:11;20.90;88.90
20337;DHT22;10326;53.660;10.200;2023-09-18T03:28:40;20.80;88.90
20337;DHT22;10326;53.660;10.200;2023-09-18T03:31:07;20.80;89.00
20337;DHT22;10326;53.660;10.200;2023-09-18T03:33:34;20.80;89.00
20337;DHT22;10326;53.660;10.200;2023-09-18T03:36:01;20.80;89.00
20337;DHT22;10326;53.660;10.200;2023-09-18T03:38:32;20.80;89.00
20337;DHT22;10326;53.660;10.200;2023-09-18T03:41:03;20.80;89.00
20337;DHT22;10326;53.660;10.200;2023-09-18T03:43:30;20.80;89.70
20337;DHT22;10326;53.660;10.200;2023-09-18T03:46:03;20.80;89.10
20337;DHT22;10326;53.660;10.200;2023-09-18T03:48:34;20.80;89.20
20337;DHT22;10326;53.660;10.200;2023-09-18T03:51:04;20.80;89.10
20337;DHT22;10326;53.660;10.200;2023-09-18T03:53:32;20.70;89.00
20337;DHT22;10326;53.660;10.200;2023-09-18T03:55:59;20.80;89.20
20337;DHT22;10326;53.660;10.200;2023-09-18T03:58:28;20.80;89.20
20337;DHT22;10326;53.660;10.200;2023-09-18T04:00:55;20.80;89.20
20337;DHT22;10326;53.660;10.200;2023-09-18T04:03:22;20.70;89.10
20337;DHT22;10326;53.660;10.200;2023-09-18T04:05:50;20.70;89.00
20337;DHT22;10326;53.660;10.200;2023-09-18T04:08:17;20.70;89.10
20337;DHT22;10326;53.660;10.200;2023-09-18T04:10:44;20.70;89.10
20337;DHT22;10326;53.660;10.200;2023-09-18T04:13:11;20.70;89.10
20337;DHT22;10326;53.660;10.200;2023-09-18T04:15:41;20.70;89.20
20337;DHT22;10326;53.660;10.200;2023-09-18T04:18:08;20.70;89.20
20337;DHT22;10326;53.660;10.200;2023-09-18T04:20:36;20.70;89.20
20337;DHT22;10326;53.660;10.200;2023-09-18T04:23:21;20.60;89.20
20337;DHT22;10326;53.660;10.200;2023-09-18T04:25:51;20.60;89.40
20337;DHT22;10326;53.660;10.200;2023-09-18T04:28:20;20.60;89.20
20337;DHT22;10326;53.660;10.200;2023-09-18T04:30:49;20.60;89.20
20337;DHT22;10326;53.660;10.200;2023-09-18T04:33:17;20.60;89.30
20337;DHT22;10326;53.660;10.200;2023-09-18T04:35:47;20.60;89.30
20337;DHT22;10326;53.660;10.200;2023-09-18T04:38:14;20.60;89.30
20337;DHT22;10326;53.660;10.200;2023-09-18T04:40:43;20.60;89.40
20337;DHT22;10326;53.660;10.200;2023-09-18T04:43:12;20.60;89.40
20337;DHT22;10326;53.660;10.200;2023-09-18T04:45:39;20.50;89.40
20337;DHT22;10326;53.660;10.200;2023-09-18T04:48:09;20.50;89.40
20337;DHT22;10326;53.660;10.200;2023-09-18T04:50:36;20.50;90.00
20337;DHT22;10326;53.660;10.200;2023-09-18T04:53:03;20.50;89.50
20337;DHT22;10326;53.660;10.200;2023-09-18T04:55:30;20.50;89.40
20337;DHT22;10326;53.660;10.200;2023-09-18T04:57:58;20.50;89.50
20337;DHT22;10326;53.660;10.200;2023-09-18T05:00:26;20.50;89.60
20337;DHT22;10326;53.660;10.200;2023-09-18T05:02:55;20.50;89.60
20337;DHT22;10326;53.660;10.200;2023-09-18T05:05:24;20.50;89.60
20337;DHT22;10326;53.660;10.200;2023-09-18T05:07:51;20.50;89.70
20337;DHT22;10326;53.660;10.200;2023-09-18T05:10:19;20.50;89.70
20337;DHT22;10326;53.660;10.200;2023-09-18T05:12:48;20.50;89.80
20337;DHT22;10326;53.660;10.200;2023-09-18T05:15:16;20.50;89.80
20337;DHT22;10326;53.660;10.200;2023-09-18T05:17:45;20.50;89.90
20337;DHT22;10326;53.660;10.200;2023-09-18T05:20:15;20.50;89.90
20337;DHT22;10326;53.660;10.200;2023-09-18T05:22:45;20.50;89.90
20337;DHT22;10326;53.660;10.200;2023-09-18T05:25:12;20.60;90.00
20337;DHT22;10326;53.660;10.200;2023-09-18T05:27:41;20.60;90.00
20337;DHT22;10326;53.660;10.200;2023-09-18T05:30:12;20.60;90.00
20337;DHT22;10326;53.660;10.200;2023-09-18T05:32:42;20.60;90.00
20337;DHT22;10326;53.660;10.200;2023-09-18T05:35:10;20.60;90.10
20337;DHT22;10326;53.660;10.200;2023-09-18T05:37:38;20.60;90.10
20337;DHT22;10326;53.660;10.200;2023-09-18T05:40:09;20.60;90.10
20337;DHT22;10326;53.660;10.200;2023-09-18T05:42:39;20.60;90.10
20337;DHT22;10326;53.660;10.200;2023-09-18T05:45:09;20.60;90.10
20337;DHT22;10326;53.660;10.200;2023-09-18T05:47:37;20.70;90.20
20337;DHT22;10326;53.660;10.200;2023-09-18T05:50:05;20.60;90.20
20337;DHT22;10326;53.660;10.200;2023-09-18T05:52:33;20.70;90.20
20337;DHT22;10326;53.660;10.200;2023-09-18T05:55:00;20.70;90.20
20337;DHT22;10326;53.660;10.200;2023-09-18T05:57:29;20.70;90.30
20337;DHT22;10326;53.660;10.200;2023-09-18T05:59:57;20.70;90.30
20337;DHT22;10326;53.660;10.200;2023-09-18T06:02:24;20.70;90.30
20337;DHT22;10326;53.660;10.200;2023-09-18T06:04:54;20.70;90.30
20337;DHT22;10326;53.660;10.200;2023-09-18T06:07:24;20.80;90.40
20337;DHT22;10326;53.660;10.200;2023-09-18T06:09:51;20.80;90.30
20337;DHT22;10326;53.660;10.200;2023-09-18T06:12:18;20.80;90.30
20337;DHT22;10326;53.660;10.200;2023-09-18T06:14:46;20.80;90.30
20337;DHT22;10326;53.660;10.200;2023-09-18T06:17:14;20.80;90.30
20337;DHT22;10326;53.660;10.200;2023-09-18T06:19:42;20.90;90.30
20337;DHT22;10326;53.660;10.200;2023-09-18T06:22:10;20.90;90.30
20337;DHT22;10326;53.660;10.200;2023-09-18T06:24:37;20.90;90.40
20337;DHT22;10326;53.660;10.200;2023-09-18T06:27:05;21.00;90.40
20337;DHT22;10326;53.660;10.200;2023-09-18T06:29:33;21.00;90.40
20337;DHT22;10326;53.660;10.200;2023-09-18T06:32:02;21.00;90.40
20337;DHT22;10326;53.660;10.200;2023-09-18T06:34:29;21.00;90.40
20337;DHT22;10326;53.660;10.200;2023-09-18T06:36:56;21.10;90.50
20337;DHT22;10326;53.660;10.200;2023-09-18T06:39:24;21.10;90.50
20337;DHT22;10326;53.660;10.200;2023-09-18T06:41:51;21.10;90.50
20337;DHT22;10326;53.660;10.200;2023-09-18T06:44:19;21.10;90.50
20337;DHT22;10326;53.660;10.200;2023-09-18T06:46:47;21.20;90.50
20337;DHT22;10326;53.660;10.200;2023-09-18T06:49:15;21.20;90.50
20337;DHT22;10326;53.660;10.200;2023-09-18T06:51:42;21.30;90.60
20337;DHT22;10326;53.660;10.200;2023-09-18T06:54:10;21.30;90.60
20337;DHT22;10326;53.660;10.200;2023-09-18T06:56:37;21.30;90.50
20337;DHT22;10326;53.660;10.200;2023-09-18T06:59:04;21.40;90.60
20337;DHT22;10326;53.660;10.200;2023-09-18T07:01:31;21.40;90.50
20337;DHT22;10326;53.660;10.200;2023-09-18T07:03:59;21.40;90.50
20337;DHT22;10326;53.660;10.200;2023-09-18T07:06:28;21.50;90.60
20337;DHT22;10326;53.660;10.200;2023-09-18T07:08:56;21.50;90.50
20337;DHT22;10326;53.660;10.200;2023-09-18T07:11:23;21.60;90.60
20337;DHT22;10326;53.660;10.200;2023-09-18T07:13:50;21.60;90.60
20337;DHT22;10326;53.660;10.200;2023-09-18T07:16:17;21.60;90.50
20337;DHT22;10326;53.660;10.200;2023-09-18T07:18:44;21.70;90.50
20337;DHT22;10326;53.660;10.200;2023-09-18T07:21:11;21.70;90.50
20337;DHT22;10326;53.660;10.200;2023-09-18T07:23:41;21.70;90.50
20337;DHT22;10326;53.660;10.200;2023-09-18T07:26:08;21.80;90.60
20337;DHT22;10326;53.660;10.200;2023-09-18T07:28:35;21.80;90.60
20337;DHT22;10326;53.660;10.200;2023-09-18T07:31:05;21.90;90.60
20337;DHT22;10326;53.660;10.200;2023-09-18T07:33:33;21.90;90.60
20337;DHT22;10326;53.660;10.200;2023-09-18T07:36:00;22.00;90.70
20337;DHT22;10326;53.660;10.200;2023-09-18T07:38:27;22.00;90.70
20337;DHT22;10326;53.660;10.200;2023-09-18T07:40:56;22.00;90.70
20337;DHT22;10326;53.660;10.200;2023-09-18T07:43:24;22.10;90.80
20337;DHT22;10326;53.660;10.200;2023-09-18T07:45:53;22.20;90.90
20337;DHT22;10326;53.660;10.200;2023-09-18T07:48:22;22.20;91.00
20337;DHT22;10326;53.660;10.200;2023-09-18T07:50:49;22.30;90.90
20337;DHT22;10326;53.660;10.200;2023-09-18T07:53:16;22.40;90.90
20337;DHT22;10326;53.660;10.200;2023-09-18T07:55:43;22.40;90.80
20337;DHT22;10326;53.660;10.200;2023-09-18T07:58:12;22.50;90.90
20337;DHT22;10326;53.660;10.200;2023-09-18T08:00:40;22.50;90.80
20337;DHT22;10326;53.660;10.200;2023-09-18T08:03:07;22.60;90.80
20337;DHT22;10326;53.660;10.200;2023-09-18T08:05:34;22.60;90.70
20337;DHT22;10326;53.660;10.200;2023-09-18T08:08:02;22.70;90.80
20337;DHT22;10326;53.660;10.200;2023-09-18T08:10:31;22.70;90.70
20337;DHT22;10326;53.660;10.200;2023-09-18T08:12:58;22.80;90.70
20337;DHT22;10326;53.660;10.200;2023-09-18T08:15:27;22.90;90.70
20337;DHT22;10326;53.660;10.200;2023-09-18T08:17:54;22.90;90.70
20337;DHT22;10326;53.660;10.200;2023-09-18T08:20:22;23.00;90.70
20337;DHT22;10326;53.660;10.200;2023-09-18T08:22:49;23.00;90.70
20337;DHT22;10326;53.660;10.200;2023-09-18T08:25:16;23.10;90.70
20337;DHT22;10326;53.660;10.200;2023-09-18T08:27:43;23.10;90.60
20337;DHT22;10326;53.660;10.200;2023-09-18T08:30:11;23.10;90.60
20337;DHT22;10326;53.660;10.200;2023-09-18T08:32:41;23.20;90.60
20337;DHT22;10326;53.660;10.200;2023-09-18T08:35:09;23.20;90.50
20337;DHT22;10326;53.660;10.200;2023-09-18T08:37:36;23.20;90.50
20337;DHT22;10326;53.660;10.200;2023-09-18T08:40:04;23.30;90.50
20337;DHT22;10326;53.660;10.200;2023-09-18T08:42:36;23.30;90.40
20337;DHT22;10326;53.660;10.200;2023-09-18T08:45:08;23.30;90.50
20337;DHT22;10326;53.660;10.200;2023-09-18T08:47:37;23.40;90.40
20337;DHT22;10326;53.660;10.200;2023-09-18T08:50:08;23.40;90.40
20337;DHT22;10326;53.660;10.200;2023-09-18T08:52:36;23.40;90.40
20337;DHT22;10326;53.660;10.200;2023-09-18T08:55:04;23.50;90.50
20337;DHT22;10326;53.660;10.200;2023-09-18T08:57:32;23.50;90.30
20337;DHT22;10326;53.660;10.200;2023-09-18T09:00:01;23.50;90.30
20337;DHT22;10326;53.660;10.200;2023-09-18T09:02:33;23.50;90.20
20337;DHT22;10326;53.660;10.200;2023-09-18T09:05:02;23.60;90.20
20337;DHT22;10326;53.660;10.200;2023-09-18T09:07:30;23.60;90.20
20337;DHT22;10326;53.660;10.200;2023-09-18T09:09:57;23.60;90.10
20337;DHT22;10326;53.660;10.200;2023-09-18T09:12:55;23.60;90.10
20337;DHT22;10326;53.660;10.200;2023-09-18T09:15:26;23.60;90.10
20337;DHT22;10326;53.660;10.200;2023-09-18T09:18:03;23.70;90.10
20337;DHT22;10326;53.660;10.200;2023-09-18T09:20:33;23.70;90.10
20337;DHT22;10326;53.660;10.200;2023-09-18T09:23:03;23.70;90.10
20337;DHT22;10326;53.660;10.200;2023-09-18T09:25:33;23.70;90.10
20337;DHT22;10326;53.660;10.200;2023-09-18T09:28:06;23.70;90.20
20337;DHT22;10326;53.660;10.200;2023-09-18T09:30:38;23.80;90.20
20337;DHT22;10326;53.660;10.200;2023-09-18T09:33:06;23.80;90.30
20337;DHT22;10326;53.660;10.200;2023-09-18T09:35:36;23.80;90.20
20337;DHT22;10326;53.660;10.200;2023-09-18T09:38:08;23.80;90.20
20337;DHT22;10326;53.660;10.200;2023-09-18T09:40:38;23.90;90.20
20337;DHT22;10326;53.660;10.200;2023-09-18T09:43:08;23.90;90.20
20337;DHT22;10326;53.660;10.200;2023-09-18T09:45:37;23.90;90.10
20337;DHT22;10326;53.660;10.200;2023-09-18T09:48:06;24.00;90.30
20337;DHT22;10326;53.660;10.200;2023-09-18T09:50:44;24.00;90.20
20337;DHT22;10326;53.660;10.200;2023-09-18T09:53:12;24.10;90.10
20337;DHT22;10326;53.660;10.200;2023-09-18T09:55:40;24.10;90.10
20337;DHT22;10326;53.660;10.200;2023-09-18T09:58:08;24.10;90.10
20337;DHT22;10326;53.660;10.200;2023-09-18T10:00:42;24.20;90.10
20337;DHT22;10326;53.660;10.200;2023-09-18T10:03:12;24.20;90.00
20337;DHT22;10326;53.660;10.200;2023-09-18T10:05:43;24.20;90.00
20337;DHT22;10326;53.660;10.200;2023-09-18T10:08:14;24.20;90.00
20337;DHT22;10326;53.660;10.200;2023-09-18T10:10:47;24.30;90.00
20337;DHT22;10326;53.660;10.200;2023-09-18T10:13:17;24.30;90.20
20337;DHT22;10326;53.660;10.200;2023-09-18T10:15:46;24.30;90.20
20337;DHT22;10326;53.660;10.200;2023-09-18T10:18:21;24.30;90.20
20337;DHT22;10326;53.660;10.200;2023-09-18T10:20:57;24.30;90.10
20337;DHT22;10326;53.660;10.200;2023-09-18T10:23:43;24.40;90.10
20337;DHT22;10326;53.660;10.200;2023-09-18T10:26:22;24.40;90.10
20337;DHT22;10326;53.660;10.200;2023-09-18T10:28:53;24.40;90.10
20337;DHT22;10326;53.660;10.200;2023-09-18T10:31:24;24.40;90.10
20337;DHT22;10326;53.660;10.200;2023-09-18T10:33:54;24.40;90.20
20337;DHT22;10326;53.660;10.200;2023-09-18T10:36:25;24.50;90.20
20337;DHT22;10326;53.660;10.200;2023-09-18T10:38:52;24.50;90.10
20337;DHT22;10326;53.660;10.200;2023-09-18T10:41:22;24.50;90.10
20337;DHT22;10326;53.660;10.200;2023-09-18T10:43:53;24.50;90.20
20337;DHT22;10326;53.660;10.200;2023-09-18T10:46:23;24.60;90.20
20337;DHT22;10326;53.660;10.200;2023-09-18T10:48:51;24.60;90.30
20337;DHT22;10326;53.660;10.200;2023-09-18T10:51:20;24.60;90.30
20337;DHT22;10326;53.660;10.200;2023-09-18T10:53:49;24.70;90.30
20337;DHT22;10326;53.660;10.200;2023-09-18T10:56:19;24.70;90.20
20337;DHT22;10326;53.660;10.200;2023-09-18T10:58:49;24.70;90.10
20337;DHT22;10326;53.660;10.200;2023-09-18T11:01:23;24.80;90.20
20337;DHT22;10326;53.660;10.200;2023-09-18T11:03:53;24.80;90.20
20337;DHT22;10326;53.660;10.200;2023-09-18T11:06:23;24.80;90.10
20337;DHT22;10326;53.660;10.200;2023-09-18T11:08:59;24.90;90.20
20337;DHT22;10326;53.660;10.200;2023-09-18T11:11:30;24.90;90.20
20337;DHT22;10326;53.660;10.200;2023-09-18T11:14:01;24.90;90.20
20337;DHT22;10326;53.660;10.200;2023-09-18T11:16:34;25.00;90.30
20337;DHT22;10326;53.660;10.200;2023-09-18T11:19:16;25.00;90.20
20337;DHT22;10326;53.660;10.200;2023-09-18T11:21:47;25.00;90.40
20337;DHT22;10326;53.660;10.200;2023-09-18T11:24:16;25.10;90.40
20337;DHT22;10326;53.660;10.200;2023-09-18T11:26:46;25.20;90.40
20337;DHT22;10326;53.660;10.200;2023-09-18T11:29:15;25.20;90.30
20337;DHT22;10326;53.660;10.200;2023-09-18T11:31:46;25.30;90.20
20337;DHT22;10326;53.660;10.200;2023-09-18T11:34:19;25.30;90.40
20337;DHT22;10326;53.660;10.200;2023-09-18T11:36:48;25.40;90.50
20337;DHT22;10326;53.660;10.200;2023-09-18T11:39:34;25.40;90.40
20337;DHT22;10326;53.660;10.200;2023-09-18T11:42:09;25.50;90.60
20337;DHT22;10326;53.660;10.200;2023-09-18T11:44:37;25.60;90.40
20337;DHT22;10326;53.660;10.200;2023-09-18T11:47:13;25.60;90.40
20337;DHT22;10326;53.660;10.200;2023-09-18T11:49:49;25.70;90.30
20337;DHT22;10326;53.660;10.200;2023-09-18T11:52:22;25.80;90.20
20337;DHT22;10326;53.660;10.200;2023-09-18T11:54:50;25.80;90.20
20337;DHT22;10326;53.660;10.200;2023-09-18T11:57:18;25.80;90.00
20337;DHT22;10326;53.660;10.200;2023-09-18T11:59:45;25.80;90.00
20337;DHT22;10326;53.660;10.200;2023-09-18T12:02:13;25.80;89.90
20337;DHT22;10326;53.660;10.200;2023-09-18T12:04:46;25.90;90.10
20337;DHT22;10326;53.660;10.200;2023-09-18T12:07:14;25.90;90.00
20337;DHT22;10326;53.660;10.200;2023-09-18T12:09:43;25.90;90.00
20337;DHT22;10326;53.660;10.200;2023-09-18T12:12:10;25.90;89.90
20337;DHT22;10326;53.660;10.200;2023-09-18T12:14:41;25.90;89.80
20337;DHT22;10326;53.660;10.200;2023-09-18T12:17:14;25.90;89.50
20337;DHT22;10326;53.660;10.200;2023-09-18T12:19:52;25.90;89.30
20337;DHT22;10326;53.660;10.200;2023-09-18T12:22:24;25.80;89.20
20337;DHT22;10326;53.660;10.200;2023-09-18T12:24:53;25.80;88.80
20337;DHT22;10326;53.660;10.200;2023-09-18T12:27:24;25.80;89.10
20337;DHT22;10326;53.660;10.200;2023-09-18T12:29:52;25.80;89.10
20337;DHT22;10326;53.660;10.200;2023-09-18T12:32:19;25.80;88.90
20337;DHT22;10326;53.660;10.200;2023-09-18T12:34:47;25.80;88.80
20337;DHT22;10326;53.660;10.200;2023-09-18T12:37:14;25.70;88.90
20337;DHT22;10326;53.660;10.200;2023-09-18T12:39:42;25.70;88.50
20337;DHT22;10326;53.660;10.200;2023-09-18T12:42:11;25.70;88.80
20337;DHT22;10326;53.660;10.200;2023-09-18T12:44:38;25.70;88.70
20337;DHT22;10326;53.660;10.200;2023-09-18T12:47:05;25.70;88.80
20337;DHT22;10326;53.660;10.200;2023-09-18T12:49:33;25.70;88.90
20337;DHT22;10326;53.660;10.200;2023-09-18T12:52:01;25.80;88.90
20337;DHT22;10326;53.660;10.200;2023-09-18T12:54:42;25.80;88.60
20337;DHT22;10326;53.660;10.200;2023-09-18T12:57:16;25.80;88.40
20337;DHT22;10326;53.660;10.200;2023-09-18T12:59:43;25.80;88.40
20337;DHT22;10326;53.660;10.200;2023-09-18T13:02:13;25.90;88.20
20337;DHT22;10326;53.660;10.200;2023-09-18T13:04:40;25.90;88.30
20337;DHT22;10326;53.660;10.200;2023-09-18T13:07:13;25.90;88.40
20337;DHT22;10326;53.660;10.200;2023-09-18T13:09:43;25.90;88.50
20337;DHT22;10326;53.660;10.200;2023-09-18T13:12:11;26.00;88.30
20337;DHT22;10326;53.660;10.200;2023-09-18T13:15:03;26.10;88.50
20337;DHT22;10326;53.660;10.200;2023-09-18T13:17:38;26.10;87.90
20337;DHT22;10326;53.660;10.200;2023-09-18T13:20:10;26.10;88.00
20337;DHT22;10326;53.660;10.200;2023-09-18T13:22:42;26.10;88.00
20337;DHT22;10326;53.660;10.200;2023-09-18T13:25:19;26.20;87.40
20337;DHT22;10326;53.660;10.200;2023-09-18T13:27:53;26.20;87.20
20337;DHT22;10326;53.660;10.200;2023-09-18T13:30:22;26.20;87.30
20337;DHT22;10326;53.660;10.200;2023-09-18T13:32:50;26.20;87.70
20337;DHT22;10326;53.660;10.200;2023-09-18T13:35:18;26.20;87.50
20337;DHT22;10326;53.660;10.200;2023-09-18T13:37:45;26.20;87.20
20337;DHT22;10326;53.660;10.200;2023-09-18T13:40:12;26.10;87.00
20337;DHT22;10326;53.660;10.200;2023-09-18T13:42:42;26.10;86.60
20337;DHT22;10326;53.660;10.200;2023-09-18T13:45:13;26.10;87.10
20337;DHT22;10326;53.660;10.200;2023-09-18T13:47:42;26.10;86.50
20337;DHT22;10326;53.660;10.200;2023-09-18T13:50:09;26.00;86.40
20337;DHT22;10326;53.660;10.200;2023-09-18T13:52:39;26.00;86.60
20337;DHT22;10326;53.660;10.200;2023-09-18T13:55:06;25.90;86.70
20337;DHT22;10326;53.660;10.200;2023-09-18T13:57:36;25.90;86.50
20337;DHT22;10326;53.660;10.200;2023-09-18T14:00:10;25.90;86.60
20337;DHT22;10326;53.660;10.200;2023-09-18T14:02:41;25.90;86.60
20337;DHT22;10326;53.660;10.200;2023-09-18T14:05:12;25.80;86.50
20337;DHT22;10326;53.660;10.200;2023-09-18T14:07:39;25.80;86.20
20337;DHT22;10326;53.660;10.200;2023-09-18T14:10:08;25.80;86.30
20337;DHT22;10326;53.660;10.200;2023-09-18T14:12:41;25.80;86.00
20337;DHT22;10326;53.660;10.200;2023-09-18T14:15:17;25.80;85.70
20337;DHT22;10326;53.660;10.200;2023-09-18T14:17:46;25.80;86.20
20337;DHT22;10326;53.660;10.200;2023-09-18T14:20:13;25.80;86.60
20337;DHT22;10326;53.660;10.200;2023-09-18T14:22:44;25.80;86.00
20337;DHT22;10326;53.660;10.200;2023-09-18T14:25:11;25.70;86.00
20337;DHT22;10326;53.660;10.200;2023-09-18T14:27:39;25.70;86.30
20337;DHT22;10326;53.660;10.200;2023-09-18T14:30:08;25.70;86.20
20337;DHT22;10326;53.660;10.200;2023-09-18T14:32:36;25.70;86.30
20337;DHT22;10326;53.660;10.200;2023-09-18T14:35:05;25.70;86.50
20337;DHT22;10326;53.660;10.200;2023-09-18T14:37:34;25.70;86.50
20337;DHT22;10326;53.660;10.200;2023-09-18T14:40:02;25.70;86.20
20337;DHT22;10326;53.660;10.200;2023-09-18T14:42:30;25.70;86.10
20337;DHT22;10326;53.660;10.200;2023-09-18T14:44:57;25.70;86.40
20337;DHT22;10326;53.660;10.200;2023-09-18T14:47:26;25.70;86.60
20337;DHT22;10326;53.660;10.200;2023-09-18T14:49:54;25.80;86.70
20337;DHT22;10326;53.660;10.200;2023-09-18T14:52:24;25.80;87.20
20337;DHT22;10326;53.660;10.200;2023-09-18T14:54:51;25.80;86.80
20337;DHT22;10326;53.660;10.200;2023-09-18T14:57:19;25.90;87.00
20337;DHT22;10326;53.660;10.200;2023-09-18T14:59:46;25.90;86.40
20337;DHT22;10326;53.660;10.200;2023-09-18T15:02:14;26.00;86.60
20337;DHT22;10326;53.660;10.200;2023-09-18T15:04:43;26.00;86.60
20337;DHT22;10326;53.660;10.200;2023-09-18T15:07:10;26.00;86.50
20337;DHT22;10326;53.660;10.200;2023-09-18T15:09:39;26.10;86.40
20337;DHT22;10326;53.660;10.200;2023-09-18T15:12:08;26.10;86.00
20337;DHT22;10326;53.660;10.200;2023-09-18T15:14:37;26.00;86.00
20337;DHT22;10326;53.660;10.200;2023-09-18T15:17:05;26.00;85.60
20337;DHT22;10326;53.660;10.200;2023-09-18T15:19:33;26.00;85.70
20337;DHT22;10326;53.660;10.200;2023-09-18T15:22:01;26.00;85.80
20337;DHT22;10326;53.660;10.200;2023-09-18T15:24:28;26.00;85.70
20337;DHT22;10326;53.660;10.200;2023-09-18T15:26:57;26.00;86.10